createdAt,value
2023-01-30T00:02:15.621Z,96.01
2023-01-30T00:06:17.569Z,96.13
2023-01-30T00:10:20.250Z,96.29
2023-01-30T00:14:22.077Z,95.95
2023-01-30T00:18:24.293Z,96.14
2023-01-30T00:22:26.414Z,96.24
2023-01-30T00:26:28.229Z,96.22
2023-01-30T00:30:30.486Z,96.28
2023-01-30T00:34:33.026Z,96.56
2023-01-30T00:38:34.879Z,96.51
2023-01-30T00:42:55.179Z,96.42
2023-01-30T00:47:06.024Z,96.55
2023-01-30T00:51:08.465Z,96.91
2023-01-30T00:55:10.327Z,96.91
2023-01-30T00:59:12.044Z,96.71
2023-01-30T01:03:13.980Z,97.03
2023-01-30T01:07:15.845Z,96.91
2023-01-30T01:11:24.676Z,96.90
2023-01-30T01:15:27.204Z,96.74
2023-01-30T01:19:29.088Z,96.83
2023-01-30T01:23:30.811Z,96.50
2023-01-30T01:27:32.694Z,96.75
2023-01-30T01:31:34.524Z,96.53
2023-01-30T01:35:40.958Z,96.44
2023-01-30T01:40:01.492Z,96.51
2023-01-30T01:44:11.638Z,96.44
2023-01-30T01:49:00.780Z,96.65
2023-01-30T01:53:03.200Z,96.77
2023-01-30T01:57:15.906Z,96.50
2023-01-30T02:01:18.172Z,96.63
2023-01-30T02:05:21.711Z,96.79
2023-01-30T02:09:23.977Z,97.19
2023-01-30T02:13:26.298Z,96.85
2023-01-30T02:17:29.255Z,96.72
2023-01-30T02:21:37.082Z,96.83
2023-01-30T02:26:04.218Z,96.75
2023-01-30T02:30:09.707Z,96.71
2023-01-30T02:34:29.544Z,96.56
2023-01-30T02:38:54.774Z,96.34
2023-01-30T02:43:25.646Z,95.95
2023-01-30T02:47:28.087Z,96.24
2023-01-30T02:51:32.539Z,96.29
2023-01-30T02:55:34.705Z,96.34
2023-01-30T02:59:43.429Z,96.30
2023-01-30T03:03:56.287Z,95.94
2023-01-30T03:08:24.547Z,96.06
2023-01-30T03:12:59.020Z,96.30
2023-01-30T03:17:04.478Z,95.85
2023-01-30T03:21:08.435Z,96.06
2023-01-30T03:25:14.104Z,95.88
2023-01-30T03:29:16.170Z,96.38
2023-01-30T03:33:18.218Z,96.35
2023-01-30T03:37:23.157Z,95.96
2023-01-30T03:41:25.031Z,95.92
2023-01-30T03:45:26.780Z,95.94
2023-01-30T03:49:28.753Z,96.25
2023-01-30T03:53:31.578Z,96.05
2023-01-30T03:57:33.984Z,96.45
2023-01-30T04:01:36.466Z,96.06
2023-01-30T04:05:38.491Z,96.40
2023-01-30T04:09:42.809Z,95.97
2023-01-30T04:13:45.698Z,96.31
2023-01-30T04:17:47.998Z,96.02
2023-01-30T04:22:03.903Z,95.51
2023-01-30T04:26:06.574Z,95.33
2023-01-30T04:30:12.023Z,94.99
2023-01-30T04:34:14.469Z,94.64
2023-01-30T04:38:16.408Z,94.52
2023-01-30T04:42:18.303Z,94.18
2023-01-30T04:46:37.042Z,93.61
2023-01-30T04:50:40.111Z,93.77
2023-01-30T04:54:41.969Z,93.65
2023-01-30T04:58:43.721Z,93.24
2023-01-30T05:02:47.104Z,92.67
2023-01-30T05:06:48.806Z,92.94
2023-01-30T05:10:50.564Z,93.13
2023-01-30T05:14:52.307Z,92.82
2023-01-30T05:18:54.015Z,93.07
2023-01-30T05:22:55.754Z,93.29
2023-01-30T05:26:57.499Z,92.64
2023-01-30T05:31:04.189Z,93.09
2023-01-30T05:35:06.743Z,92.96
2023-01-30T05:39:08.587Z,93.01
2023-01-30T05:43:10.365Z,92.84
2023-01-30T05:47:12.092Z,92.18
2023-01-30T05:51:24.923Z,91.48
2023-01-30T05:55:26.711Z,91.49
2023-01-30T05:59:28.525Z,91.21
2023-01-30T06:03:30.600Z,90.35
2023-01-30T06:07:32.655Z,90.04
2023-01-30T06:11:34.590Z,89.67
2023-01-30T06:15:36.424Z,89.03
2023-01-30T06:19:38.089Z,88.74
2023-01-30T06:23:39.917Z,88.33
2023-01-30T06:27:43.388Z,87.73
2023-01-30T06:31:45.190Z,85.58
2023-01-30T06:35:49.941Z,85.00
2023-01-30T06:39:51.741Z,84.31
2023-01-30T06:43:53.652Z,83.59
2023-01-30T06:47:56.360Z,83.09
2023-01-30T06:51:58.112Z,83.49
2023-01-30T06:56:00.132Z,83.52
2023-01-30T07:00:03.521Z,83.13
2023-01-30T07:04:05.457Z,82.84
2023-01-30T07:08:07.649Z,82.33
2023-01-30T07:12:09.378Z,82.25
2023-01-30T07:16:11.069Z,81.99
2023-01-30T07:20:12.987Z,82.14
2023-01-30T07:24:14.703Z,82.24
2023-01-30T07:28:16.406Z,82.39
2023-01-30T07:32:20.036Z,81.73
2023-01-30T07:36:21.917Z,81.90
2023-01-30T07:40:24.561Z,81.73
2023-01-30T07:44:26.310Z,81.94
2023-01-30T07:48:28.048Z,81.44
2023-01-30T07:52:29.747Z,81.24
2023-01-30T07:56:31.551Z,81.49
2023-01-30T08:00:33.392Z,81.40
2023-01-30T08:04:35.199Z,81.09
2023-01-30T08:08:37.136Z,81.33
2023-01-30T08:12:40.663Z,80.94
2023-01-30T08:16:42.441Z,81.13
2023-01-30T08:20:44.792Z,81.39
2023-01-30T08:24:46.492Z,81.01
2023-01-30T08:28:48.345Z,80.74
2023-01-30T08:32:50.109Z,80.89
2023-01-30T08:36:51.889Z,81.19
2023-01-30T08:40:53.579Z,80.69
2023-01-30T08:44:55.298Z,80.87
2023-01-30T08:48:57.028Z,80.37
2023-01-30T08:53:03.966Z,80.05
2023-01-30T08:57:05.656Z,80.03
2023-01-30T09:01:07.955Z,79.51
2023-01-30T09:05:11.191Z,79.12
2023-01-30T09:09:12.957Z,79.26
2023-01-30T09:13:14.706Z,79.30
2023-01-30T09:17:16.423Z,79.10
2023-01-30T09:21:18.194Z,78.59
2023-01-30T09:25:20.000Z,79.17
2023-01-30T09:29:21.847Z,78.45
2023-01-30T09:33:23.723Z,78.98
2023-01-30T09:37:25.449Z,78.98
2023-01-30T09:41:51.978Z,78.49
2023-01-30T09:46:12.816Z,78.50
2023-01-30T09:50:39.878Z,78.35
2023-01-30T09:54:44.796Z,78.09
2023-01-30T09:58:55.905Z,77.89
2023-01-30T10:03:06.766Z,78.14
2023-01-30T10:07:46.919Z,77.87
2023-01-30T10:12:10.405Z,77.67
2023-01-30T10:16:15.033Z,77.59
2023-01-30T10:20:29.807Z,77.53
2023-01-30T10:24:50.590Z,77.54
2023-01-30T10:29:07.014Z,77.13
2023-01-30T10:33:22.966Z,77.34
2023-01-30T10:37:33.462Z,77.22
2023-01-30T10:41:47.199Z,77.34
2023-01-30T10:46:04.238Z,77.37
2023-01-30T10:50:41.214Z,77.38
2023-01-30T10:54:55.267Z,77.37
2023-01-30T10:59:24.052Z,77.54
2023-01-30T11:03:41.998Z,77.17
2023-01-30T11:07:46.017Z,76.93
2023-01-30T11:11:51.013Z,76.89
2023-01-30T11:15:56.325Z,76.57
2023-01-30T11:20:08.761Z,76.75
2023-01-30T11:24:22.707Z,76.52
2023-01-30T11:28:26.435Z,76.40
2023-01-30T11:32:29.643Z,76.27
2023-01-30T11:36:35.978Z,75.74
2023-01-30T11:40:40.122Z,75.74
2023-01-30T11:44:42.595Z,75.78
2023-01-30T11:49:02.331Z,75.46
2023-01-30T11:53:24.378Z,75.58
2023-01-30T11:57:26.311Z,75.25
2023-01-30T12:01:31.435Z,75.36
2023-01-30T12:05:37.066Z,75.21
2023-01-30T12:09:41.007Z,75.25
2023-01-30T12:13:47.265Z,75.32
2023-01-30T12:18:04.376Z,75.06
2023-01-30T12:22:21.415Z,75.25
2023-01-30T12:26:37.589Z,75.58
2023-01-30T12:31:01.873Z,75.69
2023-01-30T12:35:15.943Z,75.06
2023-01-30T12:39:29.761Z,75.40
2023-01-30T12:44:12.924Z,75.63
2023-01-30T12:48:48.553Z,75.49
2023-01-30T12:53:02.779Z,75.18
2023-01-30T12:57:10.677Z,75.32
2023-01-30T13:01:28.275Z,75.79
2023-01-30T13:05:37.666Z,75.52
2023-01-30T13:09:45.573Z,75.71
2023-01-30T13:13:56.873Z,74.85
2023-01-30T13:18:37.669Z,75.13
2023-01-30T13:23:06.688Z,75.55
2023-01-30T13:27:13.885Z,75.64
2023-01-30T13:31:21.493Z,75.43
2023-01-30T13:35:29.029Z,75.58
2023-01-30T13:39:36.585Z,75.50
2023-01-30T13:43:50.408Z,75.73
2023-01-30T13:48:13.840Z,75.71
2023-01-30T13:52:31.940Z,76.12
2023-01-30T13:56:45.816Z,76.09
2023-01-30T14:00:57.356Z,76.01
2023-01-30T14:04:59.200Z,76.25
2023-01-30T14:09:05.852Z,76.24
2023-01-30T14:13:08.644Z,75.86
2023-01-30T14:17:15.121Z,75.80
2023-01-30T14:21:24.633Z,75.69
2023-01-30T14:25:32.960Z,76.05
2023-01-30T14:29:37.631Z,75.99
2023-01-30T14:33:50.890Z,75.93
2023-01-30T14:38:09.950Z,75.75
2023-01-30T14:42:19.819Z,75.70
2023-01-30T14:46:21.491Z,75.55
2023-01-30T14:50:23.713Z,75.60
2023-01-30T14:54:41.311Z,75.55
2023-01-30T14:59:02.869Z,75.55
2023-01-30T15:03:20.066Z,75.56
2023-01-30T15:07:31.614Z,75.46
2023-01-30T15:11:35.272Z,75.37
2023-01-30T15:15:49.389Z,75.72
2023-01-30T15:20:13.358Z,75.57
2023-01-30T15:24:33.248Z,75.71
2023-01-30T15:28:54.671Z,75.74
2023-01-30T15:33:23.021Z,75.90
2023-01-30T15:37:47.919Z,75.78
2023-01-30T15:41:52.691Z,76.02
2023-01-30T15:46:09.316Z,76.69
2023-01-30T15:50:11.677Z,76.79
2023-01-30T15:54:21.234Z,77.00
2023-01-30T15:58:23.831Z,76.94
2023-01-30T16:02:35.064Z,76.83
2023-01-30T16:06:38.035Z,76.81
2023-01-30T16:10:52.637Z,77.17
2023-01-30T16:15:05.746Z,77.51
2023-01-30T16:19:40.427Z,77.13
2023-01-30T16:23:51.628Z,76.45
2023-01-30T16:27:53.841Z,76.34
2023-01-30T16:31:56.057Z,76.06
2023-01-30T16:35:59.334Z,76.54
2023-01-30T16:40:03.477Z,76.56
2023-01-30T16:44:22.755Z,76.07
2023-01-30T16:48:36.997Z,76.26
2023-01-30T16:52:46.167Z,76.33
2023-01-30T16:56:51.635Z,76.19
2023-01-30T17:00:53.483Z,76.75
2023-01-30T17:04:55.656Z,76.75
2023-01-30T17:08:59.004Z,76.66
2023-01-30T17:13:00.934Z,76.77
2023-01-30T17:17:07.910Z,77.20
2023-01-30T17:21:13.779Z,77.41
2023-01-30T17:25:38.914Z,77.09
2023-01-30T17:29:43.815Z,77.31
2023-01-30T17:33:46.063Z,77.53
2023-01-30T17:37:59.802Z,78.09
2023-01-30T17:42:09.847Z,77.71
2023-01-30T17:46:12.954Z,78.48
2023-01-30T17:50:14.897Z,78.66
2023-01-30T17:54:17.382Z,78.55
2023-01-30T17:58:19.446Z,78.59
2023-01-30T18:02:21.318Z,78.52
2023-01-30T18:06:23.059Z,78.78
2023-01-30T18:10:24.920Z,78.59
2023-01-30T18:14:26.839Z,78.99
2023-01-30T18:18:28.666Z,79.48
2023-01-30T18:22:30.508Z,79.19
2023-01-30T18:26:33.444Z,79.69
2023-01-30T18:30:35.303Z,79.28
2023-01-30T18:34:37.836Z,79.88
2023-01-30T18:38:39.745Z,79.50
2023-01-30T18:42:41.668Z,79.71
2023-01-30T18:46:43.458Z,80.01
2023-01-30T18:50:45.416Z,80.41
2023-01-30T18:54:47.521Z,80.58
2023-01-30T18:58:56.403Z,80.51
2023-01-30T19:02:58.487Z,80.38
2023-01-30T19:07:00.283Z,80.81
2023-01-30T19:11:29.421Z,80.89
2023-01-30T19:15:35.151Z,80.60
2023-01-30T19:19:37.257Z,80.42
2023-01-30T19:23:39.069Z,80.48
2023-01-30T19:27:40.833Z,80.49
2023-01-30T19:31:42.933Z,80.00
2023-01-30T19:35:45.691Z,80.22
2023-01-30T19:39:50.262Z,80.28
2023-01-30T19:43:56.282Z,80.31
2023-01-30T19:48:01.010Z,80.55
2023-01-30T19:52:03.642Z,80.14
2023-01-30T19:56:06.296Z,80.01
2023-01-30T20:00:13.196Z,80.37
2023-01-30T20:04:17.718Z,80.25
2023-01-30T20:08:32.162Z,80.56
2023-01-30T20:12:35.858Z,80.61
2023-01-30T20:16:38.462Z,80.66
2023-01-30T20:20:43.449Z,80.24
2023-01-30T20:24:45.447Z,80.35
2023-01-30T20:28:47.712Z,80.27
2023-01-30T20:32:55.902Z,80.25
2023-01-30T20:37:00.391Z,80.33
2023-01-30T20:41:22.819Z,80.27
2023-01-30T20:45:24.775Z,80.34
2023-01-30T20:49:26.654Z,80.11
2023-01-30T20:53:28.433Z,79.99
2023-01-30T20:57:36.072Z,80.09
2023-01-30T21:01:41.167Z,79.66
2023-01-30T21:05:45.607Z,80.12
2023-01-30T21:09:47.444Z,79.79
2023-01-30T21:13:49.749Z,79.54
2023-01-30T21:17:53.990Z,80.01
2023-01-30T21:21:55.743Z,79.78
2023-01-30T21:26:06.881Z,79.46
2023-01-30T21:30:09.241Z,79.23
2023-01-30T21:34:11.107Z,79.58
2023-01-30T21:38:32.914Z,79.14
2023-01-30T21:42:52.972Z,79.39
2023-01-30T21:46:54.825Z,79.29
2023-01-30T21:50:56.879Z,79.42
2023-01-30T21:54:59.052Z,79.52
2023-01-30T21:59:03.735Z,79.72
2023-01-30T22:03:11.808Z,80.06
2023-01-30T22:07:15.562Z,80.05
2023-01-30T22:11:20.587Z,80.02
2023-01-30T22:15:22.799Z,79.79
2023-01-30T22:19:24.666Z,79.64
2023-01-30T22:23:31.580Z,79.61
2023-01-30T22:27:33.288Z,79.66
2023-01-30T22:31:37.362Z,79.84
2023-01-30T22:35:39.578Z,80.09
2023-01-30T22:39:42.828Z,80.06
2023-01-30T22:43:46.896Z,80.32
2023-01-30T22:47:48.683Z,80.81
2023-01-30T22:51:50.530Z,80.46
2023-01-30T22:55:52.371Z,80.51
2023-01-30T22:59:54.134Z,80.82
2023-01-30T23:03:57.989Z,81.21
2023-01-30T23:08:05.136Z,81.46
2023-01-30T23:12:25.783Z,81.71
2023-01-30T23:16:28.302Z,82.14
2023-01-30T23:20:30.720Z,81.92
2023-01-30T23:24:32.819Z,82.01
2023-01-30T23:28:39.049Z,82.39
2023-01-30T23:32:41.114Z,82.06
2023-01-30T23:36:46.678Z,82.24
2023-01-30T23:40:49.231Z,82.49
2023-01-30T23:44:51.052Z,82.39
2023-01-30T23:48:55.796Z,82.55
2023-01-30T23:52:57.717Z,82.35
2023-01-30T23:56:59.468Z,82.62
